Palmyra, Iowa
Current Conditions -  °F | °C
As of 7:54 PM on Tuesday 25 Nov 2014 (Local Time) from KDSM Reporting Station
Scattered Clouds Scattered Clouds  
Wind Chill: 21°   Ceiling: Unl
Heat Index: 30°   Visibility: 10mi
Dew Point: 12°   Wind: 10mph
Humidity: 47%   Direction: 150°SSE
Pressure: 30.04"   Gusts: NA
Location:  41.4707°N, 93.4797°W
Report Text: KDSM 260154Z 15009KT 10SM FEW180 SCT250 M01/M11 A3004 RMK AO2 SLP185 T10111111
Loading
Personal Weather Stations






























Interactive Weather Map New forecast layout! Learn more

10-Day Weather Forecast

Advertisements
Track Severe Weather on mobile